Weather observations for the past three days for
L O Simenstad Municipal Airport
Imperial (Metric)
Date Time (cdt) Wind (mph) Vis. (mi.) Weather Sky Cond. Temperature (ºF) Relative Humidity Wind Chill (°F) Heat Index (°F) Pressure Precipitation (in)
Air Dwpt 6 hour altimeter (in) sea level (mb) 1 hr 3 hr 6 hr
Max. Min.
05 07:55 NE 6 10.00 Overcast OVC004 0 0 0% 30.06 0.0
05 07:30 NE 3 4.00 Overcast OVC004 0 0 0% 30.07 0.0
05 07:15 NE 3 5.00 Overcast OVC004 0 0 0% 30.06 0.0
05 06:55 NE 5 7.00 Overcast OVC004 0 0 0% 30.06 0.0
05 06:35 NE 3 10.00 Overcast OVC004 0 0 0% 30.05 0.0
05 06:15 NE 6 10.00 Overcast OVC004 0 0 0% 30.05 0.0
05 05:55 Calm 7.00 Overcast OVC004 0 0 0% 30.05 0.0
05 05:35 Calm 10.00 Overcast OVC004 0 0 0% 30.03 0.0
05 05:15 Calm 7.00 Overcast OVC004 0 0 0% 30.03 0.0
05 04:55 N 5 5.00 Overcast OVC002 0 0 0% 30.02 0.0
05 04:35 N 3 2.50 Overcast OVC002 0 0 0% 30.02 0.0
05 04:15 N 6 2.00 Overcast OVC002 0 0 0% 30.03 0.0
05 03:55 N 6 1.75 Overcast OVC004 0 0 0% 30.04 0.0
05 03:35 N 5 3.00 Overcast OVC004 67.1 67.1 100% 30.04 0.0
05 03:15 N 3 10.00 Overcast OVC006 67.3 67.3 100% 30.04 0.0
05 02:55 N 5 10.00 Overcast OVC006 67.5 67.5 100% 30.04 0.0
05 02:35 NE 5 10.00 Overcast OVC006 67.5 67.5 100% 30.05 0.0
05 02:15 N 3 10.00 Overcast OVC006 67.5 67.5 100% 30.05 0.0
05 01:55 NE 6 10.00 Overcast OVC008 67.5 67.5 100% 30.04 0.0
05 01:35 Calm 10.00 Overcast OVC008 67.3 67.3 100% 30.04 0.0
05 01:15 N 6 10.00 Overcast OVC008 67.3 67.3 100% 30.03 0.0
05 00:55 N 3 10.00 Overcast OVC008 66.9 66.9 80.6 66.2 100% 30.03 0.0
05 00:35 Calm 10.00 Overcast OVC008 66.4 66.4 100% 30.03 0.0
05 00:15 N 7 10.00 Overcast OVC008 66.7 66.7 100% 30.02 0.0
04 23:55 NE 6 10.00 Overcast OVC008 66.4 66.4 100% 30.02 0.0
04 23:35 N 3 10.00 Mostly Cloudy BKN008 66.4 66.4 100% 30.03 0.0
04 23:15 N 3 10.00 Fair CLR 66.4 66.4 100% 30.02 0.0
04 22:55 N 5 10.00 Fair CLR 66.6 66.6 100% 30.02 0.0
04 22:35 N 3 10.00 Fair CLR 67.3 67.3 100% 30.03 0.0
04 22:15 N 5 10.00 Fair CLR 68.2 67.3 97% 30.03 0.0
04 21:55 N 6 10.00 Fair CLR 68.7 67.1 95% 30.03 0.0
04 21:35 N 6 10.00 Fair CLR 69.4 67.3 93% 30.02 0.0
04 21:15 N 6 10.00 Fair CLR 70.7 67.6 90% 30.02 0.0
04 20:55 N 6 10.00 Fair CLR 71.6 67.8 88% 30.01 0.0
04 20:35 N 6 10.00 Fair CLR 72.9 67.8 84% 30.01 0.0
04 20:15 N 7 10.00 Fair CLR 74.3 68 81% 29.99 0.0
04 19:50 N 8 10.00 Fair CLR 75.7 68.4 78% 77 29.98 0.0
04 19:35 N 3 10.00 Fair CLR 77.4 68.4 74% 79 29.98 0.0
04 19:15 N 7 10.00 Fair CLR 79.2 68.4 70% 82 29.97 0.0
04 18:55 N 8 10.00 Fair CLR 80.6 68.4 86 73.6 66% 83 29.97 0.0
04 18:35 N 8 10.00 Fair CLR 82.2 68.9 64% 86 29.96 0.0
04 18:15 N 6 10.00 Fair CLR 83.5 68.9 62% 87 29.96 0.0
04 17:55 N 7 10.00 Fair CLR 84.4 68.5 59% 88 29.96 0.0
04 17:15 NW 9 10.00 Fair CLR 84.9 68 57% 88 29.95 0.0
04 16:55 N 7 10.00 Fair CLR 85.3 68 56% 89 29.94 0.0
04 16:35 N 9 10.00 Fair CLR 85.6 68.4 56% 89 29.94 0.0
04 16:15 NW 8 10.00 Fair CLR 85.5 68.2 56% 89 29.94 0.0
04 15:55 N 8 10.00 Fair CLR 84.9 68.4 58% 88 29.94 0.0
04 15:35 N 6 10.00 Fair CLR 85.1 69.6 60% 89 29.94 0.0
04 15:15 NE 6 10.00 Fair CLR 84.6 70.3 62% 89 29.94 0.0
04 14:55 N 6 10.00 Fair CLR 83.5 71.6 68% 89 29.94 0.0
04 14:35 NW 7 10.00 Partly Cloudy SCT018 SCT029 82.6 72.3 71% 88 29.95 0.0
04 14:15 N 6 10.00 Mostly Cloudy SCT016 BKN029 81.7 72.7 74% 87 29.95 0.0
04 13:55 N 3 10.00 Overcast SCT014 OVC029 80.2 72.5 77% 84 29.95 0.0
04 13:35 N 3 10.00 Overcast SCT014 OVC027 77.9 72 82% 80 29.95 0.0
04 13:15 Calm 10.00 Overcast BKN012 OVC025 75.7 71.6 87% 76 29.96 0.0
04 12:55 N 6 7.00 Overcast OVC009 73.4 71.1 75 70.2 92% 29.96 0.0
04 12:35 N 9 10.00 Overcast OVC009 74.1 70.3 88% 29.96 0.0
04 12:15 N 8 7.00 Overcast OVC007 73.6 71.2 92% 29.96 0.0
04 11:55 N 7 10.00 Overcast OVC007 73.6 71.2 92% 29.95 0.0
04 11:35 N 6 10.00 Overcast OVC007 73 71.2 94% 29.95 0.0
04 11:10 N 7 10.00 Overcast OVC007 72.5 72.5 100% 29.94 0.0
04 10:55 N 9 10.00 Overcast OVC009 75 73.9 96% 73 29.94 0.0
04 10:35 N 3 10.00 Overcast OVC007 74.5 73.8 98% 29.93 0.0
04 10:15 NE 5 10.00 Overcast OVC007 73.9 73.8 99% 29.93 0.0
04 09:55 Calm 10.00 Overcast OVC005 74.1 73.9 99% 29.92 0.0
04 09:35 E 5 10.00 Overcast OVC005 73.6 73.6 100% 29.91 0.0
04 09:15 E 7 10.00 Overcast OVC003 73 73 100% 29.91 0.0
04 08:55 E 5 7.00 Overcast OVC003 72.1 72.1 100% 29.91 0.0
04 08:35 Calm 7.00 Overcast OVC003 71.1 71.1 100% 29.91 0.0
04 08:15 Calm 5.00 Overcast OVC003 70.7 70.7 100% 29.91 0.0
04 07:55 NE 5 4.00 Overcast OVC003 70.3 70.3 100% 29.9 0.0
04 07:35 Calm 7.00 Overcast OVC005 70.3 70.3 100% 29.89 0.0
04 07:15 Calm 10.00 Overcast OVC005 70.7 70.7 100% 29.88 0.0
04 06:55 E 6 10.00 Overcast OVC007 70 70 100% 29.87 0.0
04 06:35 E 5 10.00 Overcast OVC007 69.8 69.8 100% 29.87 0.0
04 06:15 E 5 10.00 Overcast OVC007 69.8 69.8 100% 29.87 0.0
04 05:55 E 6 10.00 Overcast OVC007 70 70 100% 29.87 0.0
04 05:35 NE 8 10.00 Overcast OVC007 71.6 71.6 100% 29.87 0.0
04 05:15 NE 6 10.00 Overcast OVC009 0 0 0% 29.87 0.0
04 04:55 N 3 10.00 Overcast OVC009 0 0 0% 29.87 0.0
04 04:35 N 5 10.00 Mostly Cloudy BKN009 0 0 0% 29.88 0.0
04 04:15 N 6 10.00 Partly Cloudy SCT009 0 0 0% 29.87 0.0
04 03:55 N 7 10.00 Fair CLR 0 0 0% 29.87 0.0
04 03:35 Calm 10.00 Fair CLR 72.5 72.5 100% 29.86 0.0
04 03:15 E 3 10.00 Fair CLR 72.5 72.5 100% 29.85 0.0
04 02:55 E 5 10.00 Fair CLR 73 73 100% 29.85 0.0
04 02:35 SE 3 10.00 Fair CLR 73 73 100% 29.85 0.0
04 02:15 SE 5 10.00 Fair CLR 73.4 73.4 100% 29.85 0.0
04 01:55 SE 3 10.00 Fair CLR 73.6 73.6 100% 29.85 0.0
04 01:35 SE 3 10.00 Fair CLR 74.1 73.8 99% 29.86 0.0
04 01:15 SE 5 10.00 Partly Cloudy SCT045 74.3 73.8 98% 29.86 0.0
04 00:55 E 6 10.00 Partly Cloudy SCT041 SCT050 74.3 73.8 79.3 74.3 98% 29.86 0.0
04 00:35 E 3 10.00 Partly Cloudy SCT041 SCT050 74.8 73.8 96% 29.86 0.0
04 00:15 S 5 10.00 Partly Cloudy SCT043 75 73.6 95% 73 29.86 0.0
03 23:55 SE 6 10.00 Mostly Cloudy BKN043 75.6 73.8 94% 75 29.86 0.0
03 23:35 E 3 10.00 Mostly Cloudy BKN043 BKN050 75.7 73.6 93% 75 29.86 0.0
03 23:15 E 3 10.00 Overcast OVC043 75.9 73.6 93% 76 29.86 0.0
03 22:55 E 3 10.00 Overcast OVC043 76.1 73.6 92% 76 29.85 0.0
03 22:35 SE 5 10.00 Overcast SCT036 OVC043 76.3 73.6 91% 76 29.86 0.0
03 22:15 E 7 10.00 Partly Cloudy SCT043 76.1 73.6 92% 76 29.86 0.0
03 21:55 SE 9 10.00 Partly Cloudy SCT038 76.1 73.6 92% 76 29.85 0.0
03 21:35 SE 10 10.00 Mostly Cloudy SCT040 BKN048 75.7 73.6 93% 75 29.85 0.0
03 21:15 E 8 10.00 Overcast OVC050 76.1 73.4 91% 76 29.86 0.0
03 20:55 E 9 10.00 Overcast OVC048 76.6 73.4 90% 77 29.85 0.0
03 20:35 E 7 10.00 Overcast OVC050 76.3 73.4 91% 77 29.85 0.0
03 20:15 E 6 10.00 Overcast OVC050 76.1 72.9 90% 76 29.85 0.0
03 19:55 E 7 10.00 Overcast OVC048 77 72.7 87% 78 29.85 0.0
03 19:35 E 7 10.00 Overcast OVC048 77 72.5 86% 78 29.85 0.0
03 19:15 E 6 10.00 Partly Cloudy SCT050 77.9 72.5 84% 80 29.85 0.0
03 18:55 SE 9 10.00 Fair CLR 79.5 71.6 86.4 77.5 77% 83 29.84 0.0
03 18:35 SE 10 10.00 Fair CLR 79.9 71.6 76% 83 29.83 0.0
03 18:15 SE 7 10.00 Fair CLR 80.6 70.9 72% 84 29.84 0.0
03 17:55 E 6 10.00 Fair CLR 80.1 70 71% 83 29.84 0.0
03 17:35 SE 7 10.00 Fair CLR 80.6 69.4 69% 84 29.84 0.0
03 17:15 SE 9 G 16 10.00 Partly Cloudy SCT120 77.9 68.9 74% 80 29.83 0.0
03 16:55 SE 12 10.00 Partly Cloudy SCT120 78.3 68.4 72% 80 29.84 0.0
03 16:35 SE 12 10.00 Fair CLR 79.7 67.8 67% 82 29.84 0.0
03 16:15 SE 12 10.00 Partly Cloudy SCT110 81.1 67.8 64% 84 29.84 0.0
03 15:55 SE 15 G 18 10.00 Fair CLR 82.9 67.8 60% 86 29.85 0.0
03 15:35 SE 10 10.00 Fair CLR 82.8 68.4 62% 86 29.85 0.0
03 15:15 SE 10 10.00 Fair CLR 84.2 68 58% 87 29.86 0.0
03 14:55 SE 8 10.00 Fair CLR 82.8 68.2 62% 86 29.87 0.0
03 14:35 SE 9 10.00 Fair CLR 82 67.3 61% 85 29.86 0.0
03 14:15 SE 9 G 16 10.00 Partly Cloudy SCT033 SCT043 SCT050 83.1 66.7 58% 86 29.87 0.0
03 13:55 SE 10 G 18 10.00 Partly Cloudy SCT090 84.4 66.7 56% 87 29.86 0.0
03 13:35 SE 13 G 18 10.00 Partly Cloudy SCT090 86 66.6 52% 89 29.87 0.0
03 13:15 SE 8 10.00 Partly Cloudy SCT090 85.6 67.1 54% 88 29.87 0.0
03 12:55 SE 8 10.00 Mostly Cloudy SCT080 BKN095 84.4 68.5 84.7 69.3 59% 88 29.88 0.0
03 12:35 SE 8 10.00 Mostly Cloudy BKN080 82.8 67.1 59% 85 29.89 0.0
03 12:15 S 8 10.00 Partly Cloudy SCT080 84.4 66.6 55% 87 29.89 0.0
03 11:55 SE 5 10.00 Mostly Cloudy BKN080 83.8 69.3 62% 88 29.89 0.0
03 11:35 SE 3 10.00 Overcast OVC080 81.3 68.4 65% 84 29.89 0.0
03 11:15 SE 7 10.00 Overcast OVC080 80.6 68 66% 83 29.9 0.0
03 10:55 S 8 10.00 Overcast OVC080 80.8 67.6 64% 83 29.89 0.0
03 10:35 SE 8 10.00 Mostly Cloudy BKN080 80.6 67.5 64% 83 29.89 0.0
03 10:15 SE 7 10.00 Fair CLR 81.3 67.5 63% 84 29.88 0.0
03 09:55 S 7 10.00 Fair CLR 80.2 68.5 68% 83 29.89 0.0
03 09:35 SE 8 10.00 Fair CLR 78.1 69.8 76% 80 29.9 0.0
03 09:15 E 8 10.00 Partly Cloudy SCT036 SCT070 SCT080 76.6 69.4 79% 78 29.9 0.0
03 08:55 E 6 10.00 Mostly Cloudy BKN036 BKN050 BKN070 74.5 69.3 84% 29.9 0.0
03 08:35 E 5 10.00 Mostly Cloudy SCT034 BKN050 72.7 68.9 88% 29.91 0.0
03 08:15 E 7 10.00 Partly Cloudy SCT030 SCT060 71.8 68 88% 29.91 0.0
03 07:55 E 8 10.00 Overcast BKN030 OVC044 70.7 67.6 90% 29.91 0.0
03 07:35 E 7 10.00 Overcast OVC044 70.3 67.3 90% 29.91 0.0
03 07:10 E 3 10.00 Overcast SCT045 OVC049 69.8 66.2 88% 29.91 0.0
03 06:55 E 6 10.00 Overcast SCT042 OVC049 69.3 66 72.9 67.6 89% 29.9 0.0
03 06:35 E 3 10.00 Overcast OVC042 68.9 65.5 89% 29.9 0.0
03 06:15 E 6 10.00 Partly Cloudy SCT042 67.8 65.5 92% 29.9 0.0
03 05:55 SE 7 10.00 Fair CLR 67.6 64.9 91% 29.9 0.0
03 05:35 Calm 10.00 Fair CLR 68.4 64.8 88% 29.89 0.0
03 05:15 E 5 10.00 Fair CLR 68.9 64.9 87% 29.88 0.0
03 04:55 E 3 10.00 Fair CLR 68.9 64.9 87% 29.9 0.0
03 04:35 E 3 10.00 Fair CLR 69.3 65.3 87% 29.89 0.0
03 04:15 E 5 10.00 Fair CLR 69.6 65.7 87% 29.88 0.0
03 03:55 E 3 10.00 Fair CLR 69.4 66.2 90% 29.89 0.0
03 03:35 E 3 10.00 Fair CLR 70.3 66.4 87% 29.89 0.0
03 03:15 Calm 10.00 Fair CLR 70.7 66.6 87% 29.9 0.0
03 02:55 E 5 10.00 Fair CLR 70.9 66.9 87% 29.9 0.0
03 02:35 Calm 10.00 Fair CLR 71.4 66.9 86% 29.9 0.0
03 02:15 E 3 10.00 Fair CLR 71.1 67.1 87% 29.9 0.0
03 01:55 Calm 10.00 Fair CLR 72.5 67.1 83% 29.9 0.0
03 01:35 Calm 10.00 Fair CLR 72.9 67.3 83% 29.91 0.0
03 01:15 Calm 10.00 Fair CLR 71.4 67.8 88% 29.91 0.0
03 00:55 Calm 10.00 Fair CLR 71.2 67.1 84.2 70.2 87% 29.91 0.0
03 00:35 Calm 10.00 Fair CLR 70.5 66.9 88% 29.91 0.0
03 00:15 NE 3 10.00 Fair CLR 71.6 66.9 85% 29.91 0.0
02 23:55 Calm 10.00 Fair CLR 71.2 67.1 87% 29.91 0.0
02 23:35 E 3 10.00 Fair CLR 71.1 67.1 87% 29.91 0.0
02 23:15 Calm 10.00 Fair CLR 71.1 66.7 86% 29.92 0.0
02 22:55 Calm 10.00 Fair CLR 70.9 66.9 87% 29.92 0.0
02 22:35 Calm 10.00 Fair CLR 71.6 67.1 86% 29.92 0.0
02 22:15 Calm 10.00 Partly Cloudy SCT070 72.1 66.6 83% 29.92 0.0
02 21:55 Calm 10.00 Partly Cloudy SCT070 72.3 66.7 83% 29.92 0.0
02 21:35 Calm 10.00 Fair CLR 71.8 68 88% 29.93 0.0
02 21:15 Calm 10.00 Fair CLR 72.5 67.6 85% 29.92 0.0
02 20:55 E 3 10.00 Fair CLR 74.3 66.4 76% 29.91 0.0
02 20:35 E 3 10.00 Fair CLR 72.5 66.6 82% 29.91 0.0
02 20:15 Calm 10.00 Fair CLR 75.9 65.7 71% 78 29.9 0.0
02 19:55 Calm 10.00 Fair CLR 77.9 64.6 64% 80 29.9 0.0
02 19:35 Calm 10.00 Fair CLR 80.4 63.3 56% 82 29.9 0.0
02 19:15 E 3 10.00 Fair CLR 82.8 61.9 49% 84 29.9 0.0
02 18:55 E 3 10.00 Fair CLR 84.2 61.7 86.5 82.2 47% 85 29.9 0.0
02 18:35 E 3 10.00 Fair CLR 84.4 60.8 45% 85 29.9 0.0
02 18:15 NE 5 10.00 Fair CLR 85.3 60.8 44% 85 29.9 0.0
02 17:55 E 3 10.00 Fair CLR 85.5 61.5 45% 86 29.91 0.0
02 17:35 NE 3 10.00 Fair CLR 85.6 61.3 44% 86 29.9 0.0
02 17:15 E 3 10.00 Fair CLR 86.5 61.5 43% 87 29.91 0.0
02 16:55 Calm 7.00 Fair CLR 86 61.2 43% 86 29.91 0.0
02 16:35 Calm 10.00 Fair CLR 86.4 61.7 44% 87 29.91 0.0
02 16:15 SE 6 10.00 Fair CLR 86.4 62.1 44% 87 29.91 0.0
02 15:55 Calm 10.00 Fair CLR 86.2 61.7 44% 87 29.91 0.0
02 15:35 Calm 10.00 Fair CLR 86.2 61.7 44% 87 29.91 0.0
02 15:15 Calm 10.00 Fair CLR 85.5 62.6 46% 86 29.91 0.0
02 14:55 SE 5 10.00 Fair CLR 85.5 62.6 46% 86 29.92 0.0
02 14:35 Calm 10.00 Partly Cloudy SCT120 84.6 62.1 47% 85 29.93 0.0
02 14:15 Calm 10.00 Partly Cloudy SCT120 83.7 61.5 47% 84 29.93 0.0
02 13:55 E 5 10.00 Partly Cloudy SCT120 82.9 61 48% 83 29.94 0.0
02 13:35 E 3 10.00 Fair CLR 84 60.8 46% 84 29.95 0.0
02 13:15 E 5 10.00 Fair CLR 83.5 61.9 48% 84 29.95 0.0
02 12:55 Calm 10.00 Fair CLR 82.2 62.4 82.6 64.8 51% 83 29.96 0.0
02 12:35 Calm 10.00 Fair CLR 82 61.7 50% 83 29.96 0.0
02 12:15 Calm 10.00 Fair CLR 80.8 61.5 52% 82 29.95 0.0
02 11:55 E 3 10.00 Fair CLR 80.6 61.7 53% 82 29.96 0.0
02 11:35 E 3 10.00 Fair CLR 79.7 63.1 57% 81 29.96 0.0
02 11:15 Calm 10.00 Fair CLR 77.9 63.3 61% 80 29.96 0.0
02 10:55 SW 3 10.00 Fair CLR 76.8 64.2 65% 79 29.96 0.0
02 10:35 Calm 10.00 Fair CLR 76.1 64.6 68% 78 29.96 0.0
02 10:15 Calm 10.00 Fair CLR 74.8 64.6 71% 29.95 0.0
02 09:55 E 3 10.00 Fair CLR 73.6 65.1 75% 29.96 0.0
02 09:35 Calm 10.00 Fair CLR 72.1 64.8 78% 29.96 0.0
02 08:55 Calm 10.00 Fair CLR 69.6 64.6 84% 29.96 0.0
02 08:35 Calm 10.00 Fair CLR 67.6 64.8 91% 29.96 0.0
02 08:15 Calm 10.00 Fair CLR 67.1 65.1 93% 29.97 0.0
Date Time (cdt) Wind (mph) Vis. (mi.) Weather Sky Cond. Air Dwpt Max. Min. Relative Humidity Wind Chill (°F) Heat Index (°F) altimeter (in) sea level (mb) 1 hr 3 hr 6 hr
6 hour
Temperature (ºF) Pressure Precipitation (in)